createdAt,value
2019-04-21T00:01:14.565Z,75.60
2019-04-21T00:04:07.418Z,75.80
2019-04-21T00:07:00.432Z,76.00
2019-04-21T00:09:50.256Z,76.00
2019-04-21T00:12:22.565Z,76.40
2019-04-21T00:14:47.182Z,76.40
2019-04-21T00:17:27.070Z,76.40
2019-04-21T00:23:42.470Z,80.60
2019-04-21T00:26:33.505Z,81.20
2019-04-21T00:29:32.811Z,82.20
2019-04-21T00:32:10.487Z,81.80
2019-04-21T00:34:51.209Z,82.20
2019-04-21T00:37:58.845Z,82.90
2019-04-21T00:40:50.491Z,83.60
2019-04-21T00:43:30.630Z,85.30
2019-04-21T00:46:17.987Z,86.40
2019-04-21T00:48:58.930Z,87.80
2019-04-21T00:51:40.243Z,89.70
2019-04-21T00:54:07.057Z,91.00
2019-04-21T00:56:30.955Z,91.70
2019-04-21T00:58:59.950Z,92.30
2019-04-21T01:01:33.136Z,92.70
2019-04-21T01:04:04.829Z,93.10
2019-04-21T01:06:38.118Z,93.40
2019-04-21T01:09:02.645Z,94.00
2019-04-21T01:11:31.703Z,94.80
2019-04-21T01:14:06.428Z,95.70
2019-04-21T01:16:44.087Z,96.00
2019-04-21T01:19:05.324Z,96.20
2019-04-21T01:21:15.743Z,96.70
2019-04-21T01:23:44.637Z,96.60
2019-04-21T01:26:26.359Z,97.30
2019-04-21T01:29:00.097Z,97.70
2019-04-21T01:31:35.020Z,98.10
2019-04-21T01:34:12.249Z,98.60
2019-04-21T01:36:34.674Z,99.00
2019-04-21T01:39:18.139Z,99.30
2019-04-21T01:41:38.909Z,99.90
2019-04-21T01:44:04.871Z,99.90
2019-04-21T01:46:33.719Z,99.90
2019-04-21T01:49:04.445Z,99.70
2019-04-21T01:51:48.817Z,99.70
2019-04-21T01:54:25.149Z,99.70
2019-04-21T01:56:57.026Z,99.70
2019-04-21T01:59:26.815Z,99.50
2019-04-21T02:02:01.714Z,99.60
2019-04-21T02:04:38.015Z,99.70
2019-04-21T02:07:03.071Z,99.80
2019-04-21T02:09:40.575Z,99.90
2019-04-21T02:12:10.580Z,99.90
2019-04-21T02:14:45.845Z,99.90
2019-04-21T02:17:14.931Z,99.90
2019-04-21T02:19:37.546Z,99.90
2019-04-21T02:22:04.918Z,99.90
2019-04-21T02:24:50.947Z,99.90
2019-04-21T02:27:16.871Z,99.90
2019-04-21T02:29:47.109Z,99.90
2019-04-21T02:32:26.105Z,99.90
2019-04-21T02:35:04.056Z,99.90
2019-04-21T02:37:36.772Z,99.90
2019-04-21T02:42:27.848Z,99.90
2019-04-21T02:47:39.053Z,99.90
2019-04-21T02:52:50.079Z,99.90
2019-04-21T02:55:03.680Z,99.90
2019-04-21T02:57:35.588Z,99.90
2019-04-21T03:00:10.196Z,99.90
2019-04-21T03:02:48.870Z,99.90
2019-04-21T03:05:36.189Z,99.90
2019-04-21T03:08:09.282Z,99.90
2019-04-21T03:10:45.601Z,99.90
2019-04-21T03:13:17.512Z,99.90
2019-04-21T03:15:37.673Z,99.90
2019-04-21T03:18:26.401Z,99.90
2019-04-21T03:20:48.150Z,99.90
2019-04-21T03:23:41.751Z,99.90
2019-04-21T03:28:16.305Z,99.90
2019-04-21T03:31:06.429Z,99.90
2019-04-21T03:36:27.188Z,99.90
2019-04-21T03:40:40.975Z,99.90
2019-04-21T03:43:20.318Z,99.90
2019-04-21T03:45:44.351Z,99.90
2019-04-21T03:48:21.679Z,99.90
2019-04-21T03:53:18.649Z,99.90
2019-04-21T03:55:50.360Z,99.90
2019-04-21T03:58:46.863Z,99.90
2019-04-21T04:01:16.200Z,99.90
2019-04-21T04:04:08.417Z,99.90
2019-04-21T04:06:40.585Z,99.90
2019-04-21T04:11:45.765Z,99.90
2019-04-21T04:22:31.844Z,99.90
2019-04-21T04:24:22.058Z,99.90
2019-04-21T04:26:45.363Z,99.90
2019-04-21T04:29:19.557Z,99.90
2019-04-21T04:31:43.950Z,99.90
2019-04-21T04:34:22.817Z,99.90
2019-04-21T04:37:15.295Z,99.90
2019-04-21T04:44:54.312Z,99.90
2019-04-21T04:47:20.299Z,99.90
2019-04-21T04:55:01.772Z,99.90
2019-04-21T04:57:21.849Z,99.90
2019-04-21T05:05:09.134Z,99.90
2019-04-21T05:07:27.341Z,99.90
2019-04-21T05:09:52.230Z,99.90
2019-04-21T05:12:25.148Z,99.90
2019-04-21T05:14:51.707Z,99.90
2019-04-21T05:17:31.113Z,99.90
2019-04-21T05:22:30.971Z,99.90
2019-04-21T05:24:55.401Z,99.90
2019-04-21T05:27:29.409Z,99.90
2019-04-21T05:30:20.669Z,99.90
2019-04-21T05:33:09.188Z,99.90
2019-04-21T05:35:53.040Z,99.90
2019-04-21T05:38:21.842Z,99.90
2019-04-21T05:40:48.288Z,99.90
2019-04-21T05:43:30.884Z,99.90
2019-04-21T05:46:05.816Z,99.90
2019-04-21T05:48:45.758Z,99.90
2019-04-21T05:51:08.899Z,99.90
2019-04-21T05:53:46.716Z,99.90
2019-04-21T05:56:19.232Z,99.90
2019-04-21T05:58:48.038Z,99.90
2019-04-21T06:01:24.344Z,99.90
2019-04-21T06:03:52.749Z,99.90
2019-04-21T06:08:49.909Z,99.90
2019-04-21T06:13:55.050Z,99.90
2019-04-21T06:16:43.905Z,99.90
2019-04-21T06:19:05.236Z,99.90
2019-04-21T06:21:23.573Z,99.90
2019-04-21T06:23:51.455Z,99.90
2019-04-21T06:26:50.295Z,99.90
2019-04-21T06:29:09.128Z,99.50
2019-04-21T06:31:57.874Z,99.90
2019-04-21T06:33:57.603Z,98.40
2019-04-21T06:41:34.377Z,97.80
2019-04-21T06:49:02.769Z,97.40
2019-04-21T06:51:36.016Z,97.50
2019-04-21T06:54:09.567Z,97.50
2019-04-21T06:56:42.322Z,97.50
2019-04-21T06:59:06.425Z,97.60
2019-04-21T07:01:42.219Z,97.50
2019-04-21T07:04:18.510Z,97.30
2019-04-21T07:11:44.398Z,97.10
2019-04-21T07:16:51.433Z,96.40
2019-04-21T07:19:23.776Z,96.60
2019-04-21T07:21:48.383Z,95.70
2019-04-21T07:24:21.746Z,95.70
2019-04-21T07:26:51.257Z,96.00
2019-04-21T07:29:25.871Z,95.80
2019-04-21T07:32:05.004Z,95.70
2019-04-21T07:39:19.506Z,95.50
2019-04-21T07:41:47.027Z,95.70
2019-04-21T07:44:15.931Z,95.60
2019-04-21T07:46:46.972Z,95.50
2019-04-21T07:49:43.677Z,95.80
2019-04-21T07:52:28.931Z,95.20
2019-04-21T07:55:12.925Z,95.20
2019-04-21T07:57:28.112Z,94.70
2019-04-21T08:02:32.412Z,94.00
2019-04-21T08:05:08.815Z,94.40
2019-04-21T08:07:41.755Z,93.70
2019-04-21T08:09:57.088Z,93.60
2019-04-21T08:12:25.600Z,93.60
2019-04-21T08:15:11.222Z,93.30
2019-04-21T08:17:36.494Z,92.80
2019-04-21T08:19:59.153Z,92.70
2019-04-21T08:22:42.654Z,92.80
2019-04-21T08:25:04.440Z,92.20
2019-04-21T08:27:44.240Z,92.30
2019-04-21T08:30:04.874Z,92.30
2019-04-21T08:32:51.810Z,92.10
2019-04-21T08:35:48.653Z,92.00
2019-04-21T08:37:39.859Z,91.30
2019-04-21T08:40:21.372Z,91.20
2019-04-21T08:42:38.383Z,91.50
2019-04-21T08:45:20.395Z,91.30
2019-04-21T08:47:39.629Z,91.60
2019-04-21T08:50:11.235Z,91.30
2019-04-21T08:55:22.488Z,91.60
2019-04-21T08:58:08.183Z,90.90
2019-04-21T09:00:46.872Z,90.60
2019-04-21T09:03:14.242Z,90.20
2019-04-21T09:05:52.629Z,90.50
2019-04-21T09:08:19.897Z,90.00
2019-04-21T09:10:49.895Z,89.90
2019-04-21T09:13:17.186Z,90.10
2019-04-21T09:15:50.726Z,88.30
2019-04-21T09:18:21.781Z,87.10
2019-04-21T09:21:02.172Z,88.30
2019-04-21T09:23:19.484Z,87.10
2019-04-21T09:25:57.429Z,86.70
2019-04-21T09:28:20.068Z,86.90
2019-04-21T09:30:43.966Z,85.90
2019-04-21T09:33:07.471Z,86.50
2019-04-21T09:35:41.590Z,85.30
2019-04-21T09:38:18.694Z,85.90
2019-04-21T09:40:43.921Z,83.80
2019-04-21T09:43:11.607Z,83.70
2019-04-21T09:45:38.995Z,84.40
2019-04-21T09:48:13.365Z,82.40
2019-04-21T09:50:39.763Z,81.70
2019-04-21T09:53:16.794Z,78.90
2019-04-21T09:55:48.243Z,79.20
2019-04-21T09:58:23.222Z,79.80
2019-04-21T10:00:50.872Z,79.40
2019-04-21T10:03:13.937Z,79.30
2019-04-21T10:05:42.336Z,78.50
2019-04-21T10:08:12.506Z,77.60
2019-04-21T10:10:42.489Z,75.70
2019-04-21T10:13:11.417Z,75.50
2019-04-21T10:15:40.293Z,71.90
2019-04-21T10:18:13.415Z,70.30
2019-04-21T10:20:42.780Z,69.80
2019-04-21T10:23:11.986Z,69.10
2019-04-21T10:25:41.006Z,67.70
2019-04-21T10:28:10.956Z,66.00
2019-04-21T10:30:40.709Z,64.40
2019-04-21T10:33:10.382Z,63.70
2019-04-21T10:35:39.507Z,64.00
2019-04-21T10:38:20.512Z,60.80
2019-04-21T10:40:43.366Z,61.00
2019-04-21T10:43:14.205Z,58.80
2019-04-21T10:45:43.265Z,58.20
2019-04-21T10:48:12.768Z,55.40
2019-04-21T10:50:43.030Z,53.20
2019-04-21T10:53:22.925Z,53.40
2019-04-21T10:56:05.796Z,52.60
2019-04-21T10:58:42.400Z,52.90
2019-04-21T11:01:14.254Z,53.10
2019-04-21T11:03:48.924Z,52.40
2019-04-21T11:06:19.241Z,54.50
2019-04-21T11:08:51.031Z,51.60
2019-04-21T11:11:19.626Z,52.20
2019-04-21T11:13:50.534Z,50.90
2019-04-21T11:16:19.564Z,50.80
2019-04-21T11:18:48.495Z,50.70
2019-04-21T11:21:18.682Z,51.60
2019-04-21T11:23:48.068Z,51.00
2019-04-21T11:26:18.024Z,50.60
2019-04-21T11:28:47.297Z,51.20
2019-04-21T11:31:16.338Z,50.50
2019-04-21T11:33:45.487Z,49.70
2019-04-21T11:36:15.457Z,50.50
2019-04-21T11:39:02.370Z,51.40
2019-04-21T11:41:21.515Z,49.90
2019-04-21T11:43:50.893Z,50.70
2019-04-21T11:46:20.498Z,48.70
2019-04-21T11:48:50.395Z,49.60
2019-04-21T11:51:19.532Z,51.00
2019-04-21T11:53:48.765Z,50.30
2019-04-21T11:56:18.807Z,49.70
2019-04-21T11:58:47.919Z,51.50
2019-04-21T12:01:17.921Z,49.50
2019-04-21T12:03:47.539Z,48.60
2019-04-21T12:06:17.465Z,49.70
2019-04-21T12:08:49.958Z,48.70
2019-04-21T12:11:17.748Z,48.70
2019-04-21T12:13:47.849Z,48.80
2019-04-21T12:16:17.112Z,49.90
2019-04-21T12:18:47.189Z,49.90
2019-04-21T12:21:18.985Z,47.30
2019-04-21T12:23:48.147Z,48.60
2019-04-21T12:26:18.019Z,47.60
2019-04-21T12:28:50.106Z,47.90
2019-04-21T12:31:39.183Z,49.10
2019-04-21T12:34:11.972Z,47.50
2019-04-21T12:36:42.090Z,47.50
2019-04-21T12:39:12.858Z,47.40
2019-04-21T12:41:42.618Z,48.30
2019-04-21T12:44:12.806Z,46.20
2019-04-21T12:46:41.859Z,46.40
2019-04-21T12:49:11.776Z,47.80
2019-04-21T12:51:42.032Z,47.90
2019-04-21T12:54:11.972Z,49.00
2019-04-21T12:56:41.315Z,46.90
2019-04-21T12:59:10.304Z,46.00
2019-04-21T13:01:39.196Z,46.00
2019-04-21T13:04:08.186Z,46.10
2019-04-21T13:06:37.351Z,46.60
2019-04-21T13:09:10.787Z,47.20
2019-04-21T13:11:39.153Z,45.80
2019-04-21T13:14:08.428Z,44.30
2019-04-21T13:16:37.245Z,44.70
2019-04-21T13:19:07.206Z,44.40
2019-04-21T13:21:36.161Z,44.50
2019-04-21T13:24:05.360Z,45.10
2019-04-21T13:26:43.153Z,43.70
2019-04-21T13:29:06.009Z,44.60
2019-04-21T13:31:36.229Z,43.80
2019-04-21T13:34:06.136Z,44.10
2019-04-21T13:36:35.971Z,44.20
2019-04-21T13:39:55.482Z,44.20
2019-04-21T13:42:11.086Z,43.80
2019-04-21T13:44:33.155Z,43.50
2019-04-21T13:47:06.650Z,43.50
2019-04-21T13:49:37.170Z,42.70
2019-04-21T13:52:06.727Z,41.90
2019-04-21T13:54:35.820Z,42.30
2019-04-21T13:57:04.949Z,41.50
2019-04-21T13:59:34.281Z,41.10
2019-04-21T14:02:04.767Z,40.40
2019-04-21T14:04:33.838Z,37.90
2019-04-21T14:07:02.729Z,37.90
2019-04-21T14:09:40.419Z,36.90
2019-04-21T14:12:03.376Z,39.00
2019-04-21T14:14:32.507Z,38.50
2019-04-21T14:17:03.931Z,39.60
2019-04-21T14:19:33.118Z,39.50
2019-04-21T14:22:03.320Z,38.40
2019-04-21T14:24:32.905Z,37.20
2019-04-21T14:27:02.676Z,36.50
2019-04-21T14:29:31.685Z,37.50
2019-04-21T14:32:00.519Z,36.60
2019-04-21T14:34:30.199Z,37.30
2019-04-21T14:36:59.133Z,35.90
2019-04-21T14:39:28.230Z,38.50
2019-04-21T14:41:58.131Z,38.10
2019-04-21T14:44:27.243Z,38.10
2019-04-21T14:47:18.838Z,39.40
2019-04-21T14:50:22.390Z,40.60
2019-04-21T14:53:20.240Z,39.80
2019-04-21T14:55:49.301Z,39.40
2019-04-21T14:58:19.127Z,37.90
2019-04-21T15:01:04.031Z,39.00
2019-04-21T15:03:34.206Z,39.80
2019-04-21T15:06:03.405Z,41.20
2019-04-21T15:08:33.422Z,40.70
2019-04-21T15:11:03.212Z,41.10
2019-04-21T15:13:32.430Z,41.90
2019-04-21T15:16:02.653Z,41.20
2019-04-21T15:18:32.779Z,41.80
2019-04-21T15:21:01.802Z,41.30
2019-04-21T15:23:32.492Z,41.20
2019-04-21T15:26:21.994Z,42.10
2019-04-21T15:28:51.092Z,41.70
2019-04-21T15:31:28.770Z,41.70
2019-04-21T15:33:50.614Z,43.80
2019-04-21T15:36:20.848Z,41.90
2019-04-21T15:38:49.851Z,41.90
2019-04-21T15:41:18.792Z,41.60
2019-04-21T15:43:48.739Z,41.30
2019-04-21T15:46:18.482Z,41.60
2019-04-21T15:48:48.569Z,42.00
2019-04-21T15:51:17.917Z,42.00
2019-04-21T15:53:47.887Z,41.70
2019-04-21T15:56:31.154Z,42.20
2019-04-21T15:59:08.431Z,41.70
2019-04-21T16:01:42.897Z,40.60
2019-04-21T16:04:12.607Z,40.20
2019-04-21T16:06:41.686Z,39.20
2019-04-21T16:09:14.905Z,38.50
2019-04-21T16:11:42.062Z,37.90
2019-04-21T16:14:11.128Z,37.80
2019-04-21T16:16:59.018Z,38.30
2019-04-21T16:19:29.367Z,37.80
2019-04-21T16:21:59.084Z,37.10
2019-04-21T16:24:28.247Z,36.60
2019-04-21T16:27:01.086Z,36.50
2019-04-21T16:29:29.075Z,35.80
2019-04-21T16:31:59.546Z,36.10
2019-04-21T16:34:37.888Z,36.10
2019-04-21T16:36:59.532Z,36.30
2019-04-21T16:39:29.429Z,36.10
2019-04-21T16:41:58.409Z,35.10
2019-04-21T16:44:27.474Z,35.20
2019-04-21T16:46:56.403Z,34.90
2019-04-21T16:49:25.502Z,35.50
2019-04-21T16:52:12.266Z,35.60
2019-04-21T16:54:44.003Z,35.70
2019-04-21T16:57:46.885Z,36.40
2019-04-21T17:00:29.116Z,36.00
2019-04-21T17:02:52.751Z,35.60
2019-04-21T17:05:22.464Z,36.10
2019-04-21T17:07:52.880Z,36.40
2019-04-21T17:10:22.515Z,38.00
2019-04-21T17:12:51.474Z,39.60
2019-04-21T17:15:40.766Z,40.60
2019-04-21T17:18:07.778Z,42.10
2019-04-21T17:20:34.112Z,42.60
2019-04-21T17:22:53.643Z,43.10
2019-04-21T17:25:24.951Z,43.60
2019-04-21T17:27:54.574Z,44.00
2019-04-21T17:30:24.296Z,44.50
2019-04-21T17:32:53.715Z,45.10
2019-04-21T17:35:24.552Z,45.80
2019-04-21T17:37:54.305Z,46.20
2019-04-21T17:40:26.302Z,46.20
2019-04-21T17:43:01.994Z,46.30
2019-04-21T17:45:26.919Z,46.30
2019-04-21T17:48:02.480Z,46.90
2019-04-21T17:50:45.374Z,47.40
2019-04-21T17:53:27.629Z,47.50
2019-04-21T17:55:54.207Z,47.80
2019-04-21T17:58:33.594Z,48.50
2019-04-21T18:03:46.297Z,49.10
2019-04-21T18:06:07.515Z,49.80
2019-04-21T18:08:40.109Z,50.20
2019-04-21T18:11:03.458Z,50.90
2019-04-21T18:13:26.541Z,51.40
2019-04-21T18:16:08.283Z,52.00
2019-04-21T18:18:24.296Z,52.40
2019-04-21T18:21:12.520Z,52.60
2019-04-21T18:23:54.818Z,53.10
2019-04-21T18:26:28.898Z,53.50
2019-04-21T18:28:53.228Z,54.60
2019-04-21T18:31:22.824Z,55.20
2019-04-21T18:34:06.087Z,56.00
2019-04-21T18:36:43.269Z,57.30
2019-04-21T18:39:40.044Z,57.40
2019-04-21T18:42:17.136Z,57.10
2019-04-21T18:45:28.166Z,58.00
2019-04-21T18:47:49.465Z,58.60
2019-04-21T18:50:41.759Z,59.10
2019-04-21T18:53:17.978Z,59.70
2019-04-21T18:55:43.422Z,60.10
2019-04-21T18:58:11.843Z,60.60
2019-04-21T19:00:42.186Z,61.30
2019-04-21T19:03:11.794Z,62.10
2019-04-21T19:05:47.840Z,62.80
2019-04-21T19:08:26.147Z,63.20
2019-04-21T19:11:01.137Z,63.90
2019-04-21T19:13:46.081Z,64.00
2019-04-21T19:16:22.915Z,65.30
2019-04-21T19:18:42.789Z,66.90
2019-04-21T19:21:03.072Z,67.80
2019-04-21T19:23:45.616Z,67.90
2019-04-21T19:26:18.774Z,68.80
2019-04-21T19:28:44.392Z,69.60
2019-04-21T19:31:11.126Z,70.50
2019-04-21T19:33:34.639Z,71.20
2019-04-21T19:35:53.089Z,72.10
2019-04-21T19:38:34.962Z,72.80
2019-04-21T19:41:10.350Z,73.80
2019-04-21T19:43:49.193Z,74.60
2019-04-21T19:46:14.454Z,75.10
2019-04-21T19:48:56.679Z,75.90
2019-04-21T19:51:24.528Z,76.20
2019-04-21T19:53:50.462Z,77.10
2019-04-21T19:56:10.185Z,78.00
2019-04-21T19:58:43.576Z,78.00
2019-04-21T20:01:09.756Z,78.80
2019-04-21T20:03:38.777Z,79.40
2019-04-21T20:06:17.866Z,79.80
2019-04-21T20:09:00.693Z,79.70
2019-04-21T20:11:29.022Z,80.60
2019-04-21T20:14:18.217Z,81.10
2019-04-21T20:16:30.806Z,81.30
2019-04-21T20:18:46.946Z,81.80
2019-04-21T20:21:12.148Z,82.40
2019-04-21T20:23:42.860Z,82.70
2019-04-21T20:26:13.568Z,82.70
2019-04-21T20:28:54.737Z,83.10
2019-04-21T20:31:31.593Z,83.30
2019-04-21T20:34:05.065Z,83.80
2019-04-21T20:36:35.319Z,83.80
2019-04-21T20:38:55.095Z,84.20
2019-04-21T20:41:29.663Z,84.40
2019-04-21T20:44:06.217Z,84.50
2019-04-21T20:46:36.824Z,85.00
2019-04-21T20:49:00.689Z,85.60
2019-04-21T20:51:32.763Z,84.70
2019-04-21T20:54:01.827Z,85.20
2019-04-21T20:56:37.071Z,85.30
2019-04-21T20:59:08.041Z,86.50
2019-04-21T21:01:34.826Z,85.80
2019-04-21T21:04:10.275Z,86.50
2019-04-21T21:06:36.165Z,85.70
2019-04-21T21:09:04.942Z,85.60
2019-04-21T21:11:53.513Z,86.10
2019-04-21T21:14:17.569Z,86.80
2019-04-21T21:16:46.425Z,86.30
2019-04-21T21:21:39.998Z,86.00
2019-04-21T21:24:15.920Z,85.80
2019-04-21T21:26:52.114Z,86.00
2019-04-21T21:29:11.303Z,83.80
2019-04-21T21:31:50.544Z,83.00
2019-04-21T21:34:25.728Z,84.10
2019-04-21T21:36:50.541Z,83.90
2019-04-21T21:39:15.522Z,82.70
2019-04-21T21:41:38.562Z,82.00
2019-04-21T21:44:09.205Z,81.30
2019-04-21T21:46:49.897Z,81.80
2019-04-21T21:49:22.676Z,81.60
2019-04-21T21:51:51.773Z,81.40
2019-04-21T21:54:07.494Z,80.60
2019-04-21T21:56:36.666Z,81.90
2019-04-21T21:59:10.555Z,81.20
2019-04-21T22:01:41.873Z,81.70
2019-04-21T22:04:13.308Z,81.00
2019-04-21T22:06:47.260Z,80.80
2019-04-21T22:09:12.554Z,81.50
2019-04-21T22:11:42.198Z,80.20
2019-04-21T22:14:17.116Z,80.50
2019-04-21T22:16:49.430Z,79.60
2019-04-21T22:19:29.978Z,79.60
2019-04-21T22:21:57.802Z,79.40
2019-04-21T22:24:26.835Z,79.20
2019-04-21T22:26:45.261Z,78.20
2019-04-21T22:29:14.283Z,78.30
2019-04-21T22:31:44.717Z,77.80
2019-04-21T22:34:16.346Z,78.60
2019-04-21T22:36:53.843Z,78.10
2019-04-21T22:39:33.095Z,78.00
2019-04-21T22:41:48.844Z,78.10
2019-04-21T22:44:18.894Z,78.40
2019-04-21T22:47:01.251Z,78.50
2019-04-21T22:49:20.046Z,79.50
2019-04-21T22:51:51.844Z,80.00
2019-04-21T22:54:26.814Z,80.00
2019-04-21T22:56:58.570Z,80.00
2019-04-21T22:59:22.896Z,80.40
2019-04-21T23:01:52.623Z,80.40
2019-04-21T23:04:25.404Z,80.60
2019-04-21T23:06:56.719Z,81.00
2019-04-21T23:09:26.594Z,81.10
2019-04-21T23:11:57.617Z,81.30
2019-04-21T23:14:27.841Z,81.80
2019-04-21T23:17:17.698Z,82.40
2019-04-21T23:19:41.452Z,83.50
2019-04-21T23:22:20.302Z,82.90
2019-04-21T23:24:55.569Z,82.40
2019-04-21T23:27:11.808Z,82.50
2019-04-21T23:30:08.014Z,82.80
2019-04-21T23:32:17.284Z,83.10
2019-04-21T23:34:36.368Z,84.40
2019-04-21T23:37:10.124Z,84.80
2019-04-21T23:39:35.726Z,84.40
2019-04-21T23:42:04.883Z,84.40
2019-04-21T23:44:42.830Z,84.70
2019-04-21T23:47:10.231Z,84.60
2019-04-21T23:49:49.633Z,84.60
2019-04-21T23:52:10.189Z,84.30
2019-04-21T23:54:37.606Z,85.10
2019-04-21T23:57:11.898Z,85.30
2019-04-21T23:59:40.888Z,86.10
